Time;durP1;ratioP1;P1;durP2;ratioP2;P2;SDS_P1;SDS_P2;PMS_P1;PMS_P2;Temp;Humidity;BMP_temperature;BMP_pressure;BME280_temperature;BME280_humidity;BME280_pressure;Samples;Min_cycle;Max_cycle;Signal;HPM_P1;HPM_P2
2021/05/07 00:01:24;;;;;;;3.40;2.17;;;22.80;49.00;;;;;;5045516;28;20227;-83
2021/05/07 00:03:50;;;;;;;2.63;2.00;;;22.80;49.00;;;;;;5027828;28;20171;-83
2021/05/07 00:06:16;;;;;;;2.13;1.90;;;22.80;49.00;;;;;;5046019;28;20183;-83
2021/05/07 00:08:42;;;;;;;2.93;2.03;;;22.80;49.10;;;;;;5045016;28;20187;-83
2021/05/07 00:11:17;;;;;;;4.00;2.00;;;22.80;48.90;;;;;;5044893;28;20175;-83
2021/05/07 00:13:44;;;;;;;2.87;2.10;;;22.80;49.00;;;;;;5044655;28;20484;-83
2021/05/07 00:16:10;;;;;;;3.13;2.20;;;22.80;49.00;;;;;;5027024;28;20410;-83
2021/05/07 00:18:37;;;;;;;1.93;1.50;;;22.70;49.00;;;;;;5044820;28;20434;-83
2021/05/07 00:21:05;;;;;;;4.40;2.50;;;22.70;49.10;;;;;;5026811;28;20426;-83
2021/05/07 00:23:31;;;;;;;3.03;2.07;;;22.70;49.00;;;;;;5043924;28;20414;-83
2021/05/07 00:25:56;;;;;;;2.10;1.87;;;22.70;49.10;;;;;;5027035;28;20433;-83
2021/05/07 00:28:22;;;;;;;2.67;1.93;;;22.70;49.20;;;;;;5045061;28;20206;-84
2021/05/07 00:30:48;;;;;;;2.20;1.93;;;22.70;49.10;;;;;;5045116;28;20172;-83
2021/05/07 00:33:14;;;;;;;1.90;1.70;;;22.70;49.10;;;;;;5045073;28;20716;-83
2021/05/07 00:35:42;;;;;;;3.00;1.80;;;22.70;49.20;;;;;;5026158;28;20415;-83
2021/05/07 00:38:08;;;;;;;2.67;2.10;;;22.70;49.20;;;;;;5044703;28;20175;-83
2021/05/07 00:40:36;;;;;;;2.90;1.80;;;22.70;49.20;;;;;;5044685;28;20435;-83
2021/05/07 00:43:01;;;;;;;3.07;1.90;;;22.70;49.10;;;;;;5026876;28;20553;-83
2021/05/07 00:45:28;;;;;;;3.03;2.10;;;22.60;49.20;;;;;;5026777;28;20469;-83
2021/05/07 00:48:04;;;;;;;2.30;1.97;;;22.60;49.10;;;;;;5044552;28;20183;-83
2021/05/07 00:50:32;;;;;;;4.00;2.20;;;22.60;49.10;;;;;;5027031;28;20414;-83
2021/05/07 00:52:59;;;;;;;3.37;1.70;;;22.60;49.10;;;;;;5026067;28;20506;-83
2021/05/07 00:55:28;;;;;;;2.13;1.80;;;22.60;49.10;;;;;;5026880;28;20418;-83
2021/05/07 00:57:55;;;;;;;2.10;1.90;;;22.60;49.10;;;;;;5045807;28;20399;-84
2021/05/07 01:00:22;;;;;;;2.37;1.93;;;22.60;49.30;;;;;;5046086;28;20402;-84
2021/05/07 01:02:48;;;;;;;4.53;2.37;;;22.60;49.20;;;;;;5045761;28;20410;-83
2021/05/07 01:05:14;;;;;;;2.03;1.83;;;22.60;49.20;;;;;;5045383;28;20486;-84
2021/05/07 01:07:44;;;;;;;2.90;2.03;;;22.60;49.30;;;;;;5028013;28;20207;-84
2021/05/07 01:10:12;;;;;;;2.17;1.90;;;22.60;49.10;;;;;;5027335;28;20506;-83
2021/05/07 01:12:39;;;;;;;1.90;1.30;;;22.60;49.10;;;;;;5044960;28;20407;-83
2021/05/07 01:15:12;;;;;;;1.97;1.77;;;22.50;49.10;;;;;;5027295;28;20465;-83
2021/05/07 01:17:43;;;;;;;3.17;1.90;;;22.60;49.20;;;;;;5027818;28;20421;-83
2021/05/07 01:20:09;;;;;;;2.20;2.00;;;22.50;49.10;;;;;;5027662;28;20419;-84
2021/05/07 01:22:39;;;;;;;2.37;1.63;;;22.50;49.20;;;;;;5027557;28;20427;-83
2021/05/07 01:25:07;;;;;;;2.43;1.83;;;22.50;49.10;;;;;;5027276;28;20510;-84
2021/05/07 01:27:43;;;;;;;2.00;1.70;;;22.50;49.20;;;;;;5045243;28;20769;-83
2021/05/07 01:30:15;;;;;;;2.00;1.50;;;22.50;49.20;;;;;;5027731;28;20436;-83
2021/05/07 01:32:41;;;;;;;2.07;1.70;;;22.30;49.00;;;;;;5027122;28;20987;-83
2021/05/07 01:35:19;;;;;;;2.03;1.63;;;22.50;49.20;;;;;;5026446;28;20488;-82
2021/05/07 01:37:49;;;;;;;2.17;1.70;;;22.50;49.20;;;;;;5026886;28;20416;-82
2021/05/07 01:40:19;;;;;;;2.40;1.63;;;22.50;49.20;;;;;;5044894;28;20391;-82
2021/05/07 01:42:46;;;;;;;2.10;1.50;;;22.40;49.10;;;;;;5027013;28;20410;-83
2021/05/07 01:45:13;;;;;;;2.00;1.70;;;22.40;49.20;;;;;;5045171;28;20757;-82
2021/05/07 01:47:40;;;;;;;2.10;1.50;;;22.40;49.20;;;;;;5026755;28;20415;-83
2021/05/07 01:50:08;;;;;;;2.53;1.73;;;22.50;49.30;;;;;;5027611;28;20853;-83
2021/05/07 01:52:34;;;;;;;2.30;1.50;;;22.50;49.20;;;;;;5041490;28;20419;-83
2021/05/07 01:55:01;;;;;;;1.77;1.53;;;22.40;49.20;;;;;;5007986;28;20478;-82
2021/05/07 01:57:31;;;;;;;2.47;1.63;;;22.40;49.30;;;;;;5008965;28;20939;-81
2021/05/07 01:59:58;;;;;;;2.07;1.80;;;22.40;49.20;;;;;;5008263;28;20522;-82
2021/05/07 02:02:23;;;;;;;1.70;1.40;;;22.40;49.20;;;;;;5030930;28;20403;-82
2021/05/07 02:04:49;;;;;;;4.40;1.63;;;22.40;49.30;;;;;;5014844;28;20412;-82
2021/05/07 02:10:40;;;;;;;2.13;1.33;;;22.50;49.20;;;;;;5028598;28;20219;-82
2021/05/07 02:13:08;;;;;;;1.60;1.30;;;22.40;49.40;;;;;;5010324;28;20467;-81
2021/05/07 02:15:35;;;;;;;1.70;1.50;;;22.40;49.30;;;;;;5028526;28;20409;-82
2021/05/07 02:18:01;;;;;;;1.50;1.40;;;22.40;49.30;;;;;;5010444;28;20419;-81
2021/05/07 02:20:28;;;;;;;1.67;1.53;;;22.40;49.30;;;;;;5028173;28;20404;-82
2021/05/07 02:22:54;;;;;;;2.00;1.77;;;22.40;49.20;;;;;;5027454;28;20423;-82
2021/05/07 02:25:22;;;;;;;2.57;1.57;;;22.40;49.20;;;;;;5009562;28;20455;-82
2021/05/07 02:27:49;;;;;;;2.13;1.70;;;22.40;49.30;;;;;;5009487;28;20532;-82
2021/05/07 02:30:18;;;;;;;2.40;2.20;;;22.30;49.20;;;;;;5026947;28;20458;-82
2021/05/07 02:32:43;;;;;;;2.07;1.87;;;22.30;49.20;;;;;;5008140;28;20966;-82
2021/05/07 02:35:11;;;;;;;2.63;1.50;;;22.30;49.30;;;;;;5008047;28;20474;-82
2021/05/07 02:37:36;;;;;;;2.50;1.97;;;22.30;49.20;;;;;;5025300;28;20236;-83
2021/05/07 02:40:03;;;;;;;2.10;1.90;;;22.40;49.40;;;;;;5007555;28;20419;-83
2021/05/07 02:42:29;;;;;;;3.47;1.83;;;22.30;49.30;;;;;;5007761;28;20191;-83
2021/05/07 02:44:55;;;;;;;1.70;1.40;;;22.30;49.30;;;;;;5006704;28;20561;-83
2021/05/07 02:47:23;;;;;;;2.00;1.30;;;22.30;49.20;;;;;;5023960;28;20177;-82
2021/05/07 02:49:49;;;;;;;1.60;1.20;;;22.30;49.20;;;;;;5007710;28;20622;-82
2021/05/07 02:52:15;;;;;;;2.10;1.60;;;22.30;49.20;;;;;;5008184;28;20423;-82
2021/05/07 02:54:41;;;;;;;2.27;1.90;;;22.30;49.20;;;;;;5025530;28;20211;-82
2021/05/07 02:57:07;;;;;;;2.13;1.73;;;22.30;49.20;;;;;;5006176;28;20203;-82
2021/05/07 02:59:32;;;;;;;3.03;1.90;;;22.30;49.20;;;;;;5024182;28;20237;-82
2021/05/07 03:02:01;;;;;;;2.07;1.50;;;22.30;49.30;;;;;;5025510;28;20196;-82
2021/05/07 03:04:27;;;;;;;1.60;1.27;;;22.30;49.30;;;;;;5025616;28;20263;-82
2021/05/07 03:06:52;;;;;;;2.47;1.47;;;22.30;49.30;;;;;;5007557;28;20446;-83
2021/05/07 03:09:18;;;;;;;1.70;1.30;;;22.30;49.30;;;;;;5025527;28;20176;-83
2021/05/07 03:11:45;;;;;;;1.93;1.40;;;22.20;49.20;;;;;;5025580;28;20258;-82
2021/05/07 03:14:11;;;;;;;2.27;1.63;;;22.30;49.30;;;;;;5025611;28;20446;-82
2021/05/07 03:16:37;;;;;;;2.47;1.70;;;22.30;49.30;;;;;;5007740;28;20418;-82
2021/05/07 03:19:03;;;;;;;2.67;1.93;;;22.30;49.20;;;;;;5006718;28;20421;-83
2021/05/07 03:21:29;;;;;;;2.20;1.70;;;22.30;49.30;;;;;;5025052;28;20407;-83
2021/05/07 03:23:55;;;;;;;2.20;1.80;;;22.30;49.30;;;;;;5007983;28;20415;-83
2021/05/07 03:26:20;;;;;;;1.90;1.33;;;22.30;49.30;;;;;;5024671;28;20917;-83
2021/05/07 03:28:46;;;;;;;2.20;2.00;;;22.20;49.20;;;;;;5024734;28;20176;-83
2021/05/07 03:31:12;;;;;;;1.80;1.33;;;22.30;49.30;;;;;;5024736;28;20191;-83
2021/05/07 03:33:38;;;;;;;2.53;1.70;;;22.20;49.20;;;;;;5025233;28;20541;-83
2021/05/07 03:39:26;;;;;;;3.07;1.87;;;22.30;49.20;;;;;;5025003;28;20963;-83
2021/05/07 03:41:52;;;;;;;1.57;1.47;;;22.20;49.30;;;;;;5007524;28;20415;-83
2021/05/07 03:44:17;;;;;;;1.77;1.40;;;22.20;49.30;;;;;;5007370;28;20195;-83
2021/05/07 03:46:43;;;;;;;2.20;1.70;;;22.20;49.30;;;;;;5024860;28;20179;-83
2021/05/07 03:49:09;;;;;;;2.13;1.63;;;22.20;49.30;;;;;;5007501;28;20632;-83
2021/05/07 03:51:35;;;;;;;2.20;1.60;;;22.20;49.20;;;;;;5006977;28;20211;-83
2021/05/07 03:54:00;;;;;;;1.70;1.50;;;22.20;49.30;;;;;;5024907;28;20184;-84
2021/05/07 03:56:26;;;;;;;2.00;1.63;;;22.20;49.30;;;;;;5006768;28;20431;-83
2021/05/07 03:59:15;;;;;;;1.57;1.40;;;22.20;49.30;;;;;;5024737;28;20180;-84
2021/05/07 04:01:41;;;;;;;2.20;1.40;;;22.20;49.20;;;;;;5025013;28;20239;-83
2021/05/07 04:04:09;;;;;;;2.30;1.33;;;22.20;49.30;;;;;;5024766;28;20438;-83
2021/05/07 04:06:35;;;;;;;2.50;1.73;;;22.20;49.30;;;;;;5007853;28;20188;-83
2021/05/07 04:09:13;;;;;;;1.67;1.40;;;22.20;49.30;;;;;;5028190;28;20414;-82
2021/05/07 04:11:53;;;;;;;1.43;1.00;;;22.10;49.20;;;;;;5025926;28;20464;-83
2021/05/07 04:14:19;;;;;;;2.97;1.30;;;22.10;49.20;;;;;;5032760;28;20867;-83
2021/05/07 04:16:44;;;;;;;1.50;1.30;;;22.10;49.30;;;;;;5033800;28;20504;-82
2021/05/07 04:19:10;;;;;;;2.27;1.60;;;22.10;49.20;;;;;;5053839;28;20180;-83
2021/05/07 04:21:36;;;;;;;2.93;2.00;;;22.20;49.20;;;;;;5043488;28;20266;-83
2021/05/07 04:24:02;;;;;;;1.70;1.53;;;22.10;49.00;;;;;;5017361;28;20458;-84
2021/05/07 04:26:28;;;;;;;2.30;1.47;;;22.10;48.70;;;;;;5038717;28;20648;-83
2021/05/07 04:28:54;;;;;;;1.60;1.27;;;22.10;48.70;;;;;;5024614;28;20466;-84
2021/05/07 04:31:22;;;;;;;1.67;1.20;;;22.10;48.70;;;;;;5040139;28;20179;-83
2021/05/07 04:33:48;;;;;;;1.53;1.37;;;22.20;48.80;;;;;;5045848;28;20291;-82
2021/05/07 04:36:59;;;;;;;6.33;1.70;;;22.20;48.80;;;;;;5042109;28;20414;-82
2021/05/07 04:39:25;;;;;;;2.50;1.60;;;22.20;48.90;;;;;;5016721;28;20675;-82
2021/05/07 04:41:54;;;;;;;2.27;1.23;;;22.10;49.00;;;;;;5045919;28;20423;-82
2021/05/07 04:44:20;;;;;;;1.40;1.23;;;22.10;49.00;;;;;;5027634;28;20434;-82
2021/05/07 04:46:45;;;;;;;2.30;1.37;;;22.10;49.00;;;;;;5048500;28;20415;-82
2021/05/07 04:49:11;;;;;;;1.27;1.10;;;22.20;49.10;;;;;;5048899;28;20179;-82
2021/05/07 04:51:37;;;;;;;1.50;1.33;;;22.10;49.00;;;;;;5047960;28;20207;-83
2021/05/07 04:54:04;;;;;;;1.60;1.40;;;22.10;49.00;;;;;;5031468;28;20215;-83
2021/05/07 04:56:30;;;;;;;2.30;1.10;;;22.10;49.00;;;;;;5032094;28;20239;-83
2021/05/07 04:58:56;;;;;;;1.90;1.60;;;22.20;49.00;;;;;;5048353;28;20413;-85
2021/05/07 05:01:21;;;;;;;2.10;1.23;;;22.20;49.00;;;;;;5030908;28;20418;-84
2021/05/07 05:03:47;;;;;;;1.47;1.20;;;22.20;48.90;;;;;;5031050;28;20191;-82
2021/05/07 05:06:16;;;;;;;1.70;1.17;;;22.20;48.90;;;;;;5047340;28;20172;-82
2021/05/07 05:08:41;;;;;;;2.17;1.43;;;22.20;49.50;;;;;;5029482;28;20190;-82
2021/05/07 05:11:07;;;;;;;1.97;1.30;;;22.20;48.90;;;;;;5046994;28;20418;-82
2021/05/07 05:13:33;;;;;;;3.50;1.60;;;22.20;48.90;;;;;;5046255;28;20203;-82
2021/05/07 05:15:59;;;;;;;2.00;1.27;;;22.30;48.90;;;;;;5046401;28;20174;-82
2021/05/07 05:18:32;;;;;;;2.47;1.43;;;22.20;48.90;;;;;;5046518;28;20439;-81
2021/05/07 05:21:02;;;;;;;2.40;1.30;;;22.20;48.80;;;;;;5046447;28;20403;-81
2021/05/07 05:23:29;;;;;;;1.50;1.20;;;22.30;48.90;;;;;;5047090;28;20411;-81
2021/05/07 05:25:55;;;;;;;2.13;1.37;;;22.20;48.80;;;;;;5045661;28;20892;-82
2021/05/07 05:28:21;;;;;;;1.40;1.20;;;22.30;48.90;;;;;;5029130;28;20789;-82
2021/05/07 05:30:51;;;;;;;1.40;1.27;;;22.30;48.90;;;;;;5045807;28;20424;-82
2021/05/07 05:33:17;;;;;;;1.60;1.40;;;22.20;48.80;;;;;;5045686;28;20454;-82
2021/05/07 05:35:45;;;;;;;1.67;1.40;;;22.20;48.80;;;;;;5029118;28;20430;-83
2021/05/07 05:38:17;;;;;;;1.50;1.20;;;22.20;48.90;;;;;;5048758;28;20414;-82
2021/05/07 05:40:43;;;;;;;1.67;1.37;;;22.20;48.80;;;;;;5047067;28;20399;-81
2021/05/07 05:43:11;;;;;;;2.17;1.53;;;22.30;49.00;;;;;;5047812;28;20416;-82
2021/05/07 05:45:40;;;;;;;1.47;1.20;;;22.20;48.90;;;;;;5031906;28;20180;-82
2021/05/07 05:48:09;;;;;;;1.70;1.13;;;22.20;48.80;;;;;;5029440;28;20418;-81
2021/05/07 05:50:39;;;;;;;1.70;1.20;;;22.20;48.90;;;;;;5040671;28;20419;-81
2021/05/07 05:53:05;;;;;;;1.77;1.13;;;22.20;48.90;;;;;;5028631;28;20461;-81
2021/05/07 05:55:32;;;;;;;1.77;1.23;;;22.20;48.90;;;;;;5008967;28;20456;-82
2021/05/07 05:57:58;;;;;;;1.50;1.27;;;22.20;49.00;;;;;;5008257;28;20527;-82
2021/05/07 06:00:24;;;;;;;2.00;1.30;;;22.30;48.90;;;;;;5008263;28;20423;-82
2021/05/07 06:03:31;;;;;;;1.43;1.00;;;22.30;48.90;;;;;;5008038;28;20423;-81
2021/05/07 06:05:56;;;;;;;1.40;1.10;;;22.30;48.90;;;;;;5026320;28;20391;-81
2021/05/07 06:11:44;;;;;;;2.00;1.23;;;22.30;48.90;;;;;;5025853;28;20265;-81
2021/05/07 06:14:10;;;;;;;1.53;1.17;;;22.20;48.90;;;;;;5008753;28;20459;-82
2021/05/07 06:16:35;;;;;;;1.40;1.20;;;22.30;49.00;;;;;;5027200;28;20194;-81
2021/05/07 06:19:01;;;;;;;1.80;1.20;;;22.20;48.80;;;;;;5010253;28;20183;-81
2021/05/07 06:21:29;;;;;;;1.40;1.07;;;22.30;48.90;;;;;;5027857;28;20536;-81
2021/05/07 06:23:55;;;;;;;1.97;1.27;;;22.30;48.90;;;;;;5007892;28;20181;-80
2021/05/07 06:26:23;;;;;;;1.50;1.20;;;22.30;49.00;;;;;;5005970;28;20438;-80
2021/05/07 06:28:49;;;;;;;2.40;1.20;;;22.40;48.90;;;;;;5022523;28;20627;-80
2021/05/07 06:31:14;;;;;;;1.53;1.10;;;22.40;48.80;;;;;;5023043;28;20415;-80
2021/05/07 06:33:40;;;;;;;1.60;0.90;;;22.40;48.70;;;;;;5027995;28;20455;-80
2021/05/07 06:39:30;;;;;;;2.20;1.30;;;22.60;48.70;;;;;;5030856;28;20248;-80
2021/05/07 06:41:59;;;;;;;1.50;1.00;;;22.60;48.70;;;;;;5031037;28;20419;-80
2021/05/07 06:44:25;;;;;;;2.07;1.10;;;22.60;48.60;;;;;;5010375;28;20921;-81
2021/05/07 06:46:52;;;;;;;1.47;1.17;;;22.60;48.50;;;;;;5009627;28;20446;-81
2021/05/07 06:49:18;;;;;;;1.53;1.00;;;22.70;48.50;;;;;;5025978;28;20411;-81
2021/05/07 06:51:45;;;;;;;1.80;1.30;;;22.70;48.50;;;;;;5025653;28;20434;-81
2021/05/07 06:54:10;;;;;;;2.60;1.27;;;22.70;48.40;;;;;;5011587;28;20467;-81
2021/05/07 06:56:47;;;;;;;1.63;0.97;;;22.80;48.50;;;;;;5028419;28;20446;-80
2021/05/07 06:59:15;;;;;;;1.30;1.00;;;22.80;48.40;;;;;;5026561;28;20160;-80
2021/05/07 07:01:40;;;;;;;1.73;1.10;;;22.80;48.40;;;;;;5029167;28;20411;-80
2021/05/07 07:04:07;;;;;;;1.80;1.00;;;22.80;48.40;;;;;;5011266;28;20419;-80
2021/05/07 07:06:33;;;;;;;2.13;1.20;;;22.80;48.30;;;;;;5009574;28;20181;-80
2021/05/07 07:08:59;;;;;;;1.80;1.30;;;22.90;48.40;;;;;;5029770;28;20411;-80
2021/05/07 07:11:25;;;;;;;1.20;1.00;;;22.90;48.30;;;;;;5010109;28;20783;-80
2021/05/07 07:13:51;;;;;;;2.50;1.20;;;22.90;48.40;;;;;;5027118;28;20188;-81
2021/05/07 07:16:16;;;;;;;5.03;1.47;;;22.90;48.30;;;;;;5026875;28;20165;-80
2021/05/07 07:18:45;;;;;;;1.30;1.00;;;22.90;48.30;;;;;;5008359;28;20177;-80
2021/05/07 07:21:11;;;;;;;2.20;1.40;;;23.00;48.30;;;;;;5026236;28;20169;-80
2021/05/07 07:23:37;;;;;;;1.73;1.07;;;23.00;48.30;;;;;;5026870;28;20418;-80
2021/05/07 07:26:06;;;;;;;2.30;1.10;;;23.00;48.30;;;;;;5025664;28;20977;-80
2021/05/07 07:28:33;;;;;;;1.60;1.00;;;23.00;48.30;;;;;;5025751;28;20434;-80
2021/05/07 07:30:59;;;;;;;1.30;1.00;;;23.00;48.30;;;;;;5007636;28;20953;-80
2021/05/07 07:33:25;;;;;;;1.40;1.17;;;23.10;48.40;;;;;;5007953;28;20524;-80
2021/05/07 07:35:50;;;;;;;1.20;0.90;;;23.10;48.40;;;;;;5025346;28;20435;-80
2021/05/07 07:38:16;;;;;;;1.70;1.20;;;23.00;48.30;;;;;;5008628;28;20408;-80
2021/05/07 07:40:57;;;;;;;1.33;1.03;;;23.10;48.30;;;;;;5026168;28;20200;-80
2021/05/07 07:43:23;;;;;;;2.87;1.40;;;23.10;48.30;;;;;;5026689;28;20161;-80
2021/05/07 07:45:51;;;;;;;1.47;1.13;;;23.10;48.30;;;;;;5007066;28;20407;-80
2021/05/07 07:48:17;;;;;;;3.03;1.40;;;23.20;48.40;;;;;;5026059;28;20177;-80
2021/05/07 07:50:43;;;;;;;1.30;1.00;;;23.20;48.90;;;;;;5028570;28;20404;-80
2021/05/07 07:53:11;;;;;;;1.60;1.10;;;23.20;48.30;;;;;;5027430;28;20929;-80
2021/05/07 07:55:37;;;;;;;1.07;0.87;;;23.20;48.30;;;;;;5008774;28;20442;-80
2021/05/07 07:58:03;;;;;;;1.83;1.20;;;23.20;48.30;;;;;;5029019;28;20932;-80
2021/05/07 08:00:29;;;;;;;1.53;0.80;;;23.20;48.30;;;;;;5027540;28;20407;-80
2021/05/07 08:02:54;;;;;;;1.77;1.27;;;23.20;48.30;;;;;;5009109;28;20514;-80
2021/05/07 08:05:20;;;;;;;1.40;1.00;;;23.20;48.30;;;;;;5029601;28;20426;-80
2021/05/07 08:07:46;;;;;;;1.00;0.80;;;23.30;48.30;;;;;;5026356;28;20180;-79
2021/05/07 08:10:18;;;;;;;1.53;1.10;;;23.30;48.30;;;;;;5012754;28;20180;-80
2021/05/07 08:12:44;;;;;;;2.63;0.97;;;23.30;48.30;;;;;;5027923;28;20199;-80
2021/05/07 08:15:11;;;;;;;1.80;1.00;;;23.30;48.30;;;;;;5061384;28;21023;-80
2021/05/07 08:17:37;;;;;;;3.43;1.20;;;23.30;48.30;;;;;;5045534;28;20771;-80
2021/05/07 08:20:05;;;;;;;1.43;0.90;;;23.30;48.30;;;;;;5045432;28;20410;-81
2021/05/07 08:22:31;;;;;;;1.40;1.00;;;23.30;48.30;;;;;;5045251;28;20407;-82
2021/05/07 08:24:57;;;;;;;1.80;1.17;;;23.30;48.30;;;;;;5044269;28;20409;-81
2021/05/07 08:27:23;;;;;;;1.50;1.20;;;23.30;48.30;;;;;;5044230;28;20410;-80
2021/05/07 08:29:52;;;;;;;1.77;0.80;;;23.30;48.30;;;;;;5044406;28;20179;-80
2021/05/07 08:32:18;;;;;;;1.27;0.87;;;23.30;48.20;;;;;;5043994;28;20441;-80
2021/05/07 08:34:45;;;;;;;1.00;0.80;;;23.30;48.30;;;;;;5026468;28;20814;-79
2021/05/07 08:37:12;;;;;;;1.30;1.00;;;23.30;48.20;;;;;;5026337;28;20239;-80
2021/05/07 08:39:38;;;;;;;1.60;0.90;;;23.40;48.30;;;;;;5043364;28;20406;-80
2021/05/07 08:42:09;;;;;;;1.10;0.90;;;23.40;48.30;;;;;;5026006;28;20415;-80
2021/05/07 08:44:34;;;;;;;1.40;1.00;;;23.40;48.30;;;;;;5026233;28;20469;-79
2021/05/07 08:47:01;;;;;;;1.27;1.10;;;23.40;48.30;;;;;;5046030;28;20449;-79
2021/05/07 08:49:28;;;;;;;1.27;0.90;;;23.40;48.30;;;;;;5047601;28;20194;-80
2021/05/07 08:51:54;;;;;;;1.47;1.00;;;23.40;48.30;;;;;;5027807;28;20418;-80
2021/05/07 08:54:20;;;;;;;1.57;1.17;;;23.40;48.30;;;;;;5048357;28;20516;-81
2021/05/07 09:01:00;;;;;;;2.57;1.13;;;23.40;48.30;;;;;;5048366;28;20223;-80
2021/05/07 09:03:37;;;;;;;1.17;0.97;;;23.40;48.30;;;;;;5047703;28;20398;-80
2021/05/07 09:06:14;;;;;;;1.40;1.00;;;23.40;48.30;;;;;;5044597;28;20403;-80
2021/05/07 09:08:40;;;;;;;1.60;1.00;;;23.40;48.30;;;;;;5043705;28;20837;-80
2021/05/07 09:11:08;;;;;;;1.10;0.87;;;23.40;48.90;;;;;;5043343;28;20407;-80
2021/05/07 09:13:34;;;;;;;1.77;1.20;;;23.40;48.30;;;;;;5043836;28;20540;-81
2021/05/07 09:16:08;;;;;;;1.77;0.93;;;23.40;48.30;;;;;;5043539;28;20426;-81
2021/05/07 09:18:45;;;;;;;1.17;1.03;;;23.40;48.30;;;;;;5025472;28;20168;-80
2021/05/07 09:21:12;;;;;;;1.67;0.90;;;23.40;48.30;;;;;;5044106;28;20390;-81
2021/05/07 09:23:43;;;;;;;1.70;1.20;;;23.40;48.30;;;;;;5024542;28;20422;-80
2021/05/07 09:26:12;;;;;;;1.60;1.10;;;23.50;48.30;;;;;;5043353;28;20421;-81
2021/05/07 09:28:38;;;;;;;2.27;0.93;;;23.50;48.30;;;;;;5025683;28;20414;-81
2021/05/07 09:31:12;;;;;;;1.70;1.30;;;23.50;48.90;;;;;;5025836;28;20417;-81
2021/05/07 09:33:41;;;;;;;1.00;0.87;;;23.50;48.30;;;;;;5043410;28;20758;-81
2021/05/07 09:36:08;;;;;;;1.43;1.17;;;23.50;48.30;;;;;;5042952;28;20422;-81
2021/05/07 09:38:35;;;;;;;1.30;0.80;;;23.50;48.30;;;;;;5025373;28;20482;-81
2021/05/07 09:41:01;;;;;;;1.33;1.10;;;23.50;48.30;;;;;;5020686;28;20433;-81
2021/05/07 09:43:30;;;;;;;1.67;0.83;;;23.50;48.30;;;;;;5008657;28;20446;-81
2021/05/07 09:45:56;;;;;;;1.00;0.90;;;23.50;48.30;;;;;;5027234;28;20173;-81
2021/05/07 09:48:24;;;;;;;1.00;0.80;;;23.50;48.30;;;;;;5023373;28;20426;-81
2021/05/07 09:50:54;;;;;;;1.37;0.90;;;23.50;48.30;;;;;;5027770;28;20509;-81
2021/05/07 09:53:22;;;;;;;2.13;0.97;;;23.50;48.30;;;;;;5008285;28;20466;-81
2021/05/07 09:55:51;;;;;;;1.20;1.07;;;23.50;48.30;;;;;;5024974;28;20403;-81
2021/05/07 09:58:17;;;;;;;1.40;1.00;;;23.50;48.20;;;;;;5026570;28;20465;-81
2021/05/07 10:00:44;;;;;;;1.83;0.90;;;23.50;48.20;;;;;;5019527;28;20458;-81
2021/05/07 10:03:10;;;;;;;1.63;0.93;;;23.50;48.20;;;;;;5023421;28;20435;-81
2021/05/07 10:05:36;;;;;;;1.40;1.23;;;23.50;48.20;;;;;;5022806;28;20406;-81
2021/05/07 10:08:03;;;;;;;1.50;1.10;;;23.50;48.20;;;;;;5022930;28;20438;-81
2021/05/07 10:10:38;;;;;;;1.10;0.87;;;23.50;48.20;;;;;;5005283;28;20431;-81
2021/05/07 10:13:07;;;;;;;1.50;0.90;;;23.50;48.20;;;;;;5004856;28;20583;-81
2021/05/07 10:15:37;;;;;;;1.27;1.00;;;23.50;48.20;;;;;;5005562;28;20430;-80
2021/05/07 10:18:08;;;;;;;1.40;0.90;;;23.60;48.30;;;;;;5005258;28;20418;-81
2021/05/07 10:20:39;;;;;;;1.50;1.10;;;23.60;48.30;;;;;;5005271;28;20407;-80
2021/05/07 10:23:19;;;;;;;1.10;0.90;;;23.60;48.30;;;;;;5005170;28;20404;-80
2021/05/07 10:26:05;;;;;;;1.20;0.90;;;23.60;48.30;;;;;;5005337;28;20471;-83
2021/05/07 10:28:48;;;;;;;1.00;0.90;;;23.60;48.30;;;;;;5006171;28;20566;-83
2021/05/07 10:31:15;;;;;;;1.80;1.00;;;23.60;48.30;;;;;;5023301;28;20434;-83
2021/05/07 10:34:01;;;;;;;1.10;0.80;;;23.50;48.30;;;;;;5024528;28;20465;-83
2021/05/07 10:36:51;;;;;;;2.17;0.80;;;23.60;48.90;;;;;;5025906;28;20410;-83
2021/05/07 10:42:21;;;;;;;1.10;0.97;;;23.50;48.20;;;;;;5043092;28;20394;-82
2021/05/07 10:44:46;;;;;;;1.53;1.00;;;23.50;48.30;;;;;;5024438;28;20414;-83
2021/05/07 10:47:15;;;;;;;1.20;0.80;;;23.50;48.30;;;;;;5024352;28;20421;-83
2021/05/07 10:49:42;;;;;;;1.93;1.27;;;23.50;48.20;;;;;;5024149;28;20518;-83
2021/05/07 10:52:09;;;;;;;2.87;1.43;;;23.50;48.20;;;;;;5042171;28;20410;-84
2021/05/07 10:54:46;;;;;;;2.73;1.50;;;23.50;48.20;;;;;;5024935;28;20482;-84
2021/05/07 10:57:25;;;;;;;2.50;1.90;;;23.50;48.20;;;;;;5043656;28;20401;-82
2021/05/07 10:59:55;;;;;;;4.50;1.57;;;23.50;48.20;;;;;;5042125;28;20777;-82
2021/05/07 11:02:22;;;;;;;4.60;2.13;;;23.50;48.20;;;;;;5042555;28;20778;-83
2021/05/07 11:04:50;;;;;;;5.13;2.40;;;23.50;48.20;;;;;;5040597;28;20422;-83
2021/05/07 11:07:29;;;;;;;6.60;2.50;;;23.50;48.20;;;;;;5040721;28;20434;-83
2021/05/07 11:10:02;;;;;;;5.53;2.53;;;23.50;48.20;;;;;;5041067;28;20414;-84
2021/05/07 11:12:28;;;;;;;4.80;2.30;;;23.50;48.20;;;;;;5042576;28;20858;-83
2021/05/07 11:14:54;;;;;;;4.70;2.67;;;23.50;48.30;;;;;;5043928;28;20465;-84
2021/05/07 11:17:21;;;;;;;4.90;2.47;;;23.40;48.20;;;;;;5044924;28;20176;-83
2021/05/07 11:19:48;;;;;;;6.70;2.50;;;23.50;48.30;;;;;;5045546;28;20414;-84
2021/05/07 11:25:37;;;;;;;6.03;2.87;;;23.40;48.20;;;;;;5047387;28;20413;-84
2021/05/07 11:28:18;;;;;;;6.70;2.90;;;23.40;48.20;;;;;;5029541;28;20457;-84
2021/05/07 11:30:51;;;;;;;7.10;2.70;;;23.40;48.30;;;;;;5047177;28;20511;-84
2021/05/07 11:33:18;;;;;;;5.70;2.30;;;23.40;48.30;;;;;;5047297;28;20390;-83
2021/05/07 11:35:44;;;;;;;6.90;3.10;;;23.40;48.30;;;;;;5046992;28;20410;-84
2021/05/07 11:38:10;;;;;;;6.33;3.40;;;23.40;48.30;;;;;;5045813;28;20422;-84
2021/05/07 11:40:38;;;;;;;5.20;3.00;;;23.40;48.30;;;;;;5045601;28;20418;-84
2021/05/07 11:43:09;;;;;;;6.20;3.30;;;23.40;48.30;;;;;;5046473;28;20505;-84
2021/05/07 11:45:35;;;;;;;4.73;3.33;;;23.40;48.30;;;;;;5046002;28;20497;-83
2021/05/07 11:48:12;;;;;;;5.40;2.93;;;23.40;48.30;;;;;;5044515;28;20449;-83
2021/05/07 11:54:00;;;;;;;5.60;3.83;;;23.40;48.30;;;;;;5045389;28;20449;-84
2021/05/07 11:56:27;;;;;;;6.77;3.40;;;23.30;48.30;;;;;;5045343;28;20426;-88
2021/05/07 11:58:53;;;;;;;5.73;2.87;;;23.40;48.30;;;;;;5045304;28;21035;-83
2021/05/07 12:01:31;;;;;;;7.10;3.20;;;23.40;48.30;;;;;;5045707;28;20414;-83
2021/05/07 12:04:08;;;;;;;5.80;2.60;;;23.30;48.30;;;;;;5028489;28;20422;-83
2021/05/07 12:06:42;;;;;;;6.70;3.90;;;23.40;48.30;;;;;;5043812;28;20433;-83
2021/05/07 12:09:13;;;;;;;7.97;4.70;;;23.40;48.30;;;;;;5039359;28;20402;-85
2021/05/07 12:11:39;;;;;;;8.73;3.90;;;23.40;48.30;;;;;;5038272;28;20797;-83
2021/05/07 12:14:12;;;;;;;5.53;3.43;;;23.30;48.80;;;;;;5026588;28;20446;-82
2021/05/07 12:16:38;;;;;;;4.77;3.43;;;23.40;48.30;;;;;;5025806;28;20428;-83
2021/05/07 12:19:05;;;;;;;8.27;3.67;;;23.30;48.30;;;;;;5029760;28;20417;-85
2021/05/07 12:21:45;;;;;;;8.63;3.43;;;23.30;48.20;;;;;;5029065;28;20430;-84
2021/05/07 12:24:13;;;;;;;4.30;3.57;;;23.40;48.30;;;;;;5029037;28;20472;-84
2021/05/07 12:26:52;;;;;;;7.30;3.00;;;23.30;48.30;;;;;;5028962;28;20506;-83
2021/05/07 12:29:17;;;;;;;5.13;3.80;;;23.30;48.20;;;;;;5025976;28;20414;-83
2021/05/07 12:31:43;;;;;;;5.20;3.27;;;23.30;48.30;;;;;;5026017;28;20429;-82
2021/05/07 12:34:17;;;;;;;8.43;3.60;;;23.30;48.30;;;;;;5043851;28;20195;-82
2021/05/07 12:36:55;;;;;;;9.20;3.70;;;23.30;48.20;;;;;;5027205;28;20171;-82
2021/05/07 12:39:28;;;;;;;7.30;3.00;;;23.30;48.20;;;;;;5025744;28;20414;-82
2021/05/07 12:41:55;;;;;;;6.33;3.77;;;23.20;48.20;;;;;;5026750;28;20418;-82
2021/05/07 12:44:23;;;;;;;6.07;3.50;;;23.20;48.20;;;;;;5043326;28;20441;-83
2021/05/07 12:46:50;;;;;;;7.77;3.60;;;23.20;48.20;;;;;;5025546;28;20419;-82
2021/05/07 12:49:18;;;;;;;4.37;3.23;;;23.20;48.30;;;;;;5043568;28;20414;-83
2021/05/07 12:51:43;;;;;;;6.93;3.33;;;23.20;48.30;;;;;;5025630;28;20980;-82
2021/05/07 12:54:09;;;;;;;9.73;3.10;;;23.10;48.20;;;;;;5043443;28;20450;-83
2021/05/07 12:56:40;;;;;;;6.30;3.20;;;23.10;48.20;;;;;;5025910;28;20692;-82
2021/05/07 12:59:06;;;;;;;5.50;3.07;;;23.10;48.20;;;;;;5044176;28;20163;-83
2021/05/07 13:01:32;;;;;;;3.77;2.83;;;23.10;48.20;;;;;;5043945;28;20413;-85
2021/05/07 13:03:58;;;;;;;5.93;2.93;;;23.00;48.10;;;;;;5028188;28;20414;-85
2021/05/07 13:06:24;;;;;;;8.30;3.53;;;23.00;48.10;;;;;;5027926;28;20176;-85
2021/05/07 13:08:50;;;;;;;4.87;2.87;;;23.00;48.10;;;;;;5026784;28;20406;-86
2021/05/07 13:11:16;;;;;;;5.30;3.17;;;23.00;48.00;;;;;;5044975;28;20210;-84
2021/05/07 13:13:42;;;;;;;7.43;3.40;;;23.00;48.10;;;;;;5045155;28;20955;-84
2021/05/07 13:16:11;;;;;;;4.10;2.80;;;23.00;48.10;;;;;;5027400;28;20197;-84
2021/05/07 13:18:37;;;;;;;3.93;2.40;;;23.00;48.10;;;;;;5026958;28;20419;-83
2021/05/07 13:21:03;;;;;;;5.20;3.10;;;22.90;48.10;;;;;;5042214;28;20518;-82